createdAt,value
2019-02-24T00:01:02.260Z,10.03
2019-02-24T00:03:34.022Z,13.45
2019-02-24T00:06:05.156Z,11.25
2019-02-24T00:08:36.405Z,13.35
2019-02-24T00:11:09.732Z,11.63
2019-02-24T00:13:41.966Z,12.10
2019-02-24T00:16:13.418Z,13.38
2019-02-24T00:18:44.758Z,9.58
2019-02-24T00:21:16.318Z,11.35
2019-02-24T00:23:47.926Z,12.80
2019-02-24T00:26:19.225Z,11.75
2019-02-24T00:28:50.683Z,13.93
2019-02-24T00:31:21.910Z,8.68
2019-02-24T00:33:53.359Z,12.23
2019-02-24T00:36:24.434Z,13.93
2019-02-24T00:38:55.858Z,13.15
2019-02-24T00:41:27.204Z,12.98
2019-02-24T00:43:58.855Z,8.43
2019-02-24T00:46:30.201Z,18.82
2019-02-24T00:49:01.655Z,10.78
2019-02-24T00:51:32.791Z,8.95
2019-02-24T00:54:05.677Z,12.65
2019-02-24T00:56:37.127Z,11.60
2019-02-24T00:59:08.787Z,11.80
2019-02-24T01:01:41.691Z,11.88
2019-02-24T01:04:13.012Z,10.03
2019-02-24T01:06:44.320Z,11.78
2019-02-24T01:09:15.933Z,13.08
2019-02-24T01:11:47.270Z,12.75
2019-02-24T01:14:18.509Z,11.60
2019-02-24T01:16:49.853Z,14.95
2019-02-24T01:19:21.307Z,10.82
2019-02-24T01:21:52.652Z,14.60
2019-02-24T01:24:24.136Z,11.18
2019-02-24T01:26:55.450Z,15.23
2019-02-24T01:29:26.597Z,12.60
2019-02-24T01:31:58.050Z,16.95
2019-02-24T01:34:29.290Z,15.00
2019-02-24T01:37:00.841Z,16.48
2019-02-24T01:39:32.085Z,9.78
2019-02-24T01:42:04.048Z,13.20
2019-02-24T01:44:35.497Z,15.55
2019-02-24T01:47:06.779Z,15.25
2019-02-24T01:49:38.298Z,13.05
2019-02-24T01:52:10.055Z,14.47
2019-02-24T01:54:41.404Z,14.63
2019-02-24T01:57:12.753Z,12.98
2019-02-24T01:59:44.206Z,14.80
2019-02-24T02:02:15.884Z,12.82
2019-02-24T02:04:47.308Z,12.18
2019-02-24T02:07:18.758Z,12.03
2019-02-24T02:09:49.905Z,14.47
2019-02-24T02:12:21.247Z,19.35
2019-02-24T02:14:52.695Z,16.17
2019-02-24T02:17:24.048Z,13.98
2019-02-24T02:19:55.498Z,14.07
2019-02-24T02:22:26.842Z,18.20
2019-02-24T02:24:58.291Z,16.20
2019-02-24T02:27:29.540Z,14.25
2019-02-24T02:30:01.815Z,19.67
2019-02-24T02:32:33.359Z,18.48
2019-02-24T02:35:06.140Z,15.53
2019-02-24T02:37:37.295Z,13.98
2019-02-24T02:40:08.978Z,20.40
2019-02-24T02:42:40.490Z,20.70
2019-02-24T02:45:12.663Z,25.02
2019-02-24T02:47:43.808Z,22.13
2019-02-24T02:50:15.257Z,22.73
2019-02-24T02:52:47.115Z,16.97
2019-02-24T02:55:18.662Z,27.90
2019-02-24T02:57:50.119Z,19.65
2019-02-24T03:00:30.880Z,19.82
2019-02-24T03:03:02.390Z,15.55
2019-02-24T03:05:33.689Z,19.42
2019-02-24T03:08:06.777Z,16.12
2019-02-24T03:10:38.016Z,17.90
2019-02-24T03:13:09.770Z,17.75
2019-02-24T03:15:40.921Z,15.15
2019-02-24T03:18:12.469Z,18.82
2019-02-24T03:20:43.714Z,14.07
2019-02-24T03:23:15.162Z,18.27
2019-02-24T03:25:46.411Z,14.58
2019-02-24T03:28:17.881Z,15.08
2019-02-24T03:30:49.134Z,11.53
2019-02-24T03:33:20.655Z,16.32
2019-02-24T03:35:51.694Z,15.68
2019-02-24T03:38:23.145Z,13.83
2019-02-24T03:40:54.410Z,11.73
2019-02-24T03:43:25.637Z,13.75
2019-02-24T03:45:57.912Z,13.78
2019-02-24T03:48:29.367Z,13.95
2019-02-24T03:51:00.710Z,14.28
2019-02-24T03:53:32.584Z,13.22
2019-02-24T03:56:03.820Z,13.85
2019-02-24T03:58:35.260Z,15.95
2019-02-24T04:01:06.507Z,21.60
2019-02-24T04:03:38.371Z,17.17
2019-02-24T04:06:09.724Z,15.85
2019-02-24T04:08:41.170Z,14.98
2019-02-24T04:11:12.303Z,37.73
2019-02-24T04:13:43.764Z,35.52
2019-02-24T04:16:15.006Z,29.85
2019-02-24T04:18:46.456Z,41.60
2019-02-24T04:21:17.694Z,31.12
2019-02-24T04:23:49.149Z,36.53
2019-02-24T04:26:20.184Z,40.25
2019-02-24T04:28:51.329Z,44.10
2019-02-24T04:31:22.782Z,41.68
2019-02-24T04:33:54.641Z,45.33
2019-02-24T04:36:25.993Z,37.03
2019-02-24T04:38:57.542Z,57.67
2019-02-24T04:41:28.887Z,63.10
2019-02-24T04:44:00.751Z,57.45
2019-02-24T04:46:31.991Z,42.03
2019-02-24T04:49:03.447Z,44.45
2019-02-24T04:51:37.656Z,32.88
2019-02-24T04:54:09.416Z,23.22
2019-02-24T04:56:40.765Z,23.98
2019-02-24T04:59:12.217Z,26.77
2019-02-24T05:01:43.867Z,26.75
2019-02-24T05:04:15.581Z,25.50
2019-02-24T05:06:46.773Z,19.65
2019-02-24T05:09:18.233Z,23.47
2019-02-24T05:11:49.872Z,19.32
2019-02-24T05:14:22.968Z,25.92
2019-02-24T05:16:55.642Z,29.48
2019-02-24T05:19:27.198Z,14.13
2019-02-24T05:21:58.545Z,24.10
2019-02-24T05:24:30.088Z,23.05
2019-02-24T05:27:01.242Z,29.63
2019-02-24T05:29:32.584Z,27.77
2019-02-24T05:32:05.262Z,46.15
2019-02-24T05:34:36.718Z,25.68
2019-02-24T05:37:07.863Z,30.52
2019-02-24T05:39:40.444Z,28.35
2019-02-24T05:42:11.890Z,28.85
2019-02-24T05:44:43.231Z,29.10
2019-02-24T05:47:14.886Z,35.38
2019-02-24T05:49:46.233Z,42.65
2019-02-24T05:52:17.788Z,39.27
2019-02-24T05:54:51.844Z,42.67
2019-02-24T05:57:23.045Z,58.48
2019-02-24T05:59:55.574Z,60.12
2019-02-24T06:02:27.182Z,42.98
2019-02-24T06:04:58.417Z,44.77
2019-02-24T06:07:29.777Z,55.63
2019-02-24T06:10:01.346Z,50.52
2019-02-24T06:12:33.179Z,37.10
2019-02-24T06:15:06.121Z,36.42
2019-02-24T06:17:37.302Z,28.80
2019-02-24T06:20:08.973Z,27.75
2019-02-24T06:22:40.660Z,31.23
2019-02-24T06:25:12.175Z,33.10
2019-02-24T06:27:43.624Z,43.65
2019-02-24T06:30:14.857Z,20.30
2019-02-24T06:32:46.420Z,27.98
2019-02-24T06:35:17.776Z,23.92
2019-02-24T06:37:49.358Z,27.73
2019-02-24T06:40:20.774Z,28.75
2019-02-24T06:42:52.322Z,28.90
2019-02-24T06:45:23.867Z,19.87
2019-02-24T06:47:55.621Z,20.37
2019-02-24T06:50:35.022Z,17.45
2019-02-24T06:53:01.627Z,17.27
2019-02-24T06:55:32.953Z,19.95
2019-02-24T06:58:04.431Z,27.98
2019-02-24T07:00:35.947Z,24.18
2019-02-24T07:03:07.734Z,23.38
2019-02-24T07:05:38.949Z,15.90
2019-02-24T07:08:10.400Z,21.85
2019-02-24T07:10:41.949Z,13.32
2019-02-24T07:13:13.506Z,18.50
2019-02-24T07:15:45.263Z,13.68
2019-02-24T07:18:16.539Z,16.40
2019-02-24T07:20:48.159Z,15.58
2019-02-24T07:23:19.817Z,12.95
2019-02-24T07:25:51.198Z,9.58
2019-02-24T07:28:22.826Z,10.38
2019-02-24T07:30:54.376Z,11.93
2019-02-24T07:33:26.143Z,8.43
2019-02-24T07:35:57.588Z,6.22
2019-02-24T07:38:29.030Z,10.38
2019-02-24T07:41:00.456Z,12.45
2019-02-24T07:43:31.933Z,10.55
2019-02-24T07:46:03.383Z,11.28
2019-02-24T07:48:34.839Z,13.05
2019-02-24T07:51:06.191Z,8.38
2019-02-24T07:53:38.140Z,12.07
2019-02-24T07:56:09.796Z,16.48
2019-02-24T07:58:42.068Z,12.55
2019-02-24T08:01:13.522Z,13.78
2019-02-24T08:06:16.519Z,18.85
2019-02-24T08:08:48.172Z,14.43
2019-02-24T08:11:19.841Z,26.70
2019-02-24T08:13:51.586Z,17.15
2019-02-24T08:18:53.662Z,15.58
2019-02-24T08:21:24.950Z,14.20
2019-02-24T08:23:56.569Z,13.30
2019-02-24T08:28:59.584Z,15.50
2019-02-24T08:31:30.891Z,18.92
2019-02-24T08:34:02.674Z,16.48
2019-02-24T08:36:34.023Z,16.05
2019-02-24T08:41:36.114Z,15.20
2019-02-24T08:44:07.861Z,13.22
2019-02-24T08:46:39.308Z,12.05
2019-02-24T08:49:10.764Z,10.53
2019-02-24T08:51:42.524Z,12.45
2019-02-24T08:54:14.323Z,15.68
2019-02-24T08:56:45.929Z,21.33
2019-02-24T08:59:17.279Z,11.53
2019-02-24T09:01:49.051Z,15.58
2019-02-24T09:04:20.901Z,23.42
2019-02-24T09:06:53.481Z,35.65
2019-02-24T09:09:25.128Z,12.40
2019-02-24T09:11:56.802Z,17.87
2019-02-24T09:14:28.447Z,10.10
2019-02-24T09:19:31.748Z,21.45
2019-02-24T09:22:03.199Z,22.82
2019-02-24T09:24:34.753Z,15.58
2019-02-24T09:27:06.310Z,11.50
2019-02-24T09:29:37.650Z,13.30
2019-02-24T09:32:09.119Z,10.30
2019-02-24T09:34:40.567Z,12.15
2019-02-24T09:37:12.099Z,12.93
2019-02-24T09:39:43.557Z,15.13
2019-02-24T09:42:15.221Z,10.65
2019-02-24T09:47:16.887Z,10.18
2019-02-24T09:49:48.426Z,15.63
2019-02-24T09:54:50.513Z,13.65
2019-02-24T09:57:22.172Z,18.27
2019-02-24T09:59:53.820Z,13.40
2019-02-24T10:02:25.826Z,13.50
2019-02-24T10:04:57.173Z,17.25
2019-02-24T10:07:28.614Z,17.55
2019-02-24T10:10:00.355Z,18.02
2019-02-24T10:12:31.795Z,17.37
2019-02-24T10:15:03.650Z,14.20
2019-02-24T10:17:35.203Z,13.53
2019-02-24T10:20:09.025Z,23.83
2019-02-24T10:22:40.371Z,17.07
2019-02-24T10:25:11.604Z,20.02
2019-02-24T10:27:42.747Z,8.88
2019-02-24T10:30:15.813Z,16.30
2019-02-24T10:32:47.049Z,12.20
2019-02-24T10:35:18.739Z,10.75
2019-02-24T10:37:50.478Z,16.50
2019-02-24T10:40:22.074Z,12.88
2019-02-24T10:42:53.289Z,11.85
2019-02-24T10:45:24.739Z,9.75
2019-02-24T10:47:56.192Z,15.40
2019-02-24T10:50:27.904Z,12.65
2019-02-24T10:52:59.656Z,16.87
2019-02-24T10:55:31.294Z,15.58
2019-02-24T10:58:03.337Z,17.12
2019-02-24T11:00:34.669Z,9.08
2019-02-24T11:03:06.360Z,13.10
2019-02-24T11:05:37.618Z,13.98
2019-02-24T11:08:09.244Z,8.90
2019-02-24T11:13:11.218Z,4.03
2019-02-24T11:18:14.309Z,3.52
2019-02-24T11:20:46.678Z,6.80
2019-02-24T11:25:48.959Z,5.75
2019-02-24T11:30:51.756Z,5.30
2019-02-24T11:33:23.106Z,3.35
2019-02-24T11:35:54.363Z,5.00
2019-02-24T11:38:25.804Z,12.78
2019-02-24T11:40:57.511Z,15.13
2019-02-24T11:45:59.437Z,7.08
2019-02-24T11:48:30.817Z,7.80
2019-02-24T11:51:02.343Z,5.92
2019-02-24T11:53:33.686Z,5.83
2019-02-24T11:56:04.927Z,7.53
2019-02-24T12:01:06.667Z,12.28
2019-02-24T12:03:38.264Z,11.90
2019-02-24T12:06:09.497Z,9.23
2019-02-24T12:11:11.685Z,12.15
2019-02-24T12:13:44.470Z,19.80
2019-02-24T12:16:15.788Z,12.55
2019-02-24T12:18:47.674Z,8.28
2019-02-24T12:21:18.695Z,10.53
2019-02-24T12:23:50.273Z,10.60
2019-02-24T12:26:21.735Z,8.80
2019-02-24T12:28:53.187Z,9.00
2019-02-24T12:31:24.421Z,10.93
2019-02-24T12:33:56.901Z,13.93
2019-02-24T12:36:28.343Z,11.12
2019-02-24T12:41:31.294Z,22.55
2019-02-24T12:44:02.991Z,24.82
2019-02-24T12:49:04.874Z,14.07
2019-02-24T12:51:36.934Z,13.90
2019-02-24T12:54:09.509Z,9.08
2019-02-24T12:56:40.964Z,13.00
2019-02-24T12:59:12.615Z,11.22
2019-02-24T13:01:44.397Z,15.98
2019-02-24T13:04:15.721Z,9.33
2019-02-24T13:06:46.982Z,11.83
2019-02-24T13:09:19.620Z,9.60
2019-02-24T13:11:50.790Z,10.08
2019-02-24T13:14:22.442Z,14.10
2019-02-24T13:16:53.696Z,15.93
2019-02-24T13:19:24.956Z,16.45
2019-02-24T13:21:56.487Z,11.78
2019-02-24T13:24:27.736Z,13.70
2019-02-24T13:26:59.332Z,11.55
2019-02-24T13:32:02.195Z,8.98
2019-02-24T13:34:33.651Z,9.30
2019-02-24T13:37:04.782Z,12.78
2019-02-24T13:39:36.276Z,13.62
2019-02-24T13:42:07.895Z,9.85
2019-02-24T13:44:39.549Z,15.80
2019-02-24T13:47:11.116Z,16.55
2019-02-24T13:49:43.085Z,8.20
2019-02-24T13:52:14.709Z,17.45
2019-02-24T13:54:46.055Z,14.03
2019-02-24T13:57:17.614Z,16.67
2019-02-24T13:59:49.058Z,15.58
2019-02-24T14:02:23.985Z,16.62
2019-02-24T14:04:54.422Z,17.23
2019-02-24T14:07:26.073Z,17.02
2019-02-24T14:09:58.450Z,16.97
2019-02-24T14:12:30.096Z,21.40
2019-02-24T14:17:32.075Z,16.30
2019-02-24T14:20:04.364Z,14.85
2019-02-24T14:22:35.904Z,28.27
2019-02-24T14:25:10.761Z,12.88
2019-02-24T14:27:41.972Z,15.38
2019-02-24T14:30:18.159Z,17.75
2019-02-24T14:32:49.478Z,11.60
2019-02-24T14:35:25.423Z,18.10
2019-02-24T14:37:58.114Z,13.32
2019-02-24T14:43:00.405Z,24.80
2019-02-24T14:48:03.507Z,18.92
2019-02-24T14:53:06.148Z,23.83
2019-02-24T14:55:39.444Z,26.00
2019-02-24T14:58:10.792Z,24.82
2019-02-24T15:00:42.608Z,23.92
2019-02-24T15:03:15.224Z,27.50
2019-02-24T15:05:46.834Z,22.30
2019-02-24T15:10:48.815Z,20.60
2019-02-24T15:13:20.053Z,28.05
2019-02-24T15:15:51.814Z,26.95
2019-02-24T15:18:23.375Z,26.00
2019-02-24T15:20:55.022Z,23.12
2019-02-24T15:23:26.571Z,26.40
2019-02-24T15:25:57.776Z,24.87
2019-02-24T15:28:29.512Z,25.48
2019-02-24T15:31:01.240Z,30.75
2019-02-24T15:33:32.900Z,24.65
2019-02-24T15:36:05.105Z,51.18
2019-02-24T15:38:36.611Z,35.35
2019-02-24T15:41:08.466Z,88.70
2019-02-24T15:43:40.533Z,70.17
2019-02-24T15:46:11.808Z,29.95
2019-02-24T15:48:43.434Z,39.23
2019-02-24T15:51:16.842Z,36.28
2019-02-24T15:53:48.995Z,37.33
2019-02-24T15:56:20.439Z,38.33
2019-02-24T16:01:22.425Z,43.55
2019-02-24T16:06:24.405Z,32.20
2019-02-24T16:08:56.369Z,34.00
2019-02-24T16:11:28.126Z,36.50
2019-02-24T16:13:59.639Z,37.83
2019-02-24T16:16:31.221Z,39.00
2019-02-24T16:19:02.685Z,40.45
2019-02-24T16:21:33.814Z,46.77
2019-02-24T16:24:05.296Z,40.55
2019-02-24T16:26:36.922Z,44.73
2019-02-24T16:31:38.808Z,47.13
2019-02-24T16:36:41.800Z,46.23
2019-02-24T16:39:13.047Z,42.27
2019-02-24T16:41:44.709Z,48.90
2019-02-24T16:44:16.703Z,49.63
2019-02-24T16:46:48.018Z,54.70
2019-02-24T16:49:19.667Z,52.40
2019-02-24T16:54:21.649Z,49.60
2019-02-24T16:59:23.521Z,54.80
2019-02-24T17:01:55.257Z,67.30
2019-02-24T17:04:27.154Z,63.15
2019-02-24T17:09:29.124Z,67.85
2019-02-24T17:12:00.789Z,72.62
2019-02-24T17:14:32.123Z,71.62
2019-02-24T17:17:07.153Z,68.97
2019-02-24T17:19:40.985Z,63.68
2019-02-24T17:22:12.519Z,65.20
2019-02-24T17:24:44.068Z,68.12
2019-02-24T17:27:15.628Z,72.08
2019-02-24T17:29:47.385Z,66.87
2019-02-24T17:34:49.377Z,84.77
2019-02-24T17:37:21.337Z,98.52
2019-02-24T17:39:53.078Z,82.70
2019-02-24T17:44:56.496Z,59.88
2019-02-24T17:49:58.166Z,59.10
2019-02-24T17:52:31.276Z,57.73
2019-02-24T17:55:03.128Z,49.93
2019-02-24T17:57:34.683Z,48.28
2019-02-24T18:00:23.123Z,46.90
2019-02-24T18:02:55.124Z,49.95
2019-02-24T18:05:26.934Z,47.43
2019-02-24T18:08:01.208Z,48.20
2019-02-24T18:10:32.498Z,41.63
2019-02-24T18:15:34.484Z,37.38
2019-02-24T18:18:06.058Z,38.45
2019-02-24T18:20:37.571Z,48.08
2019-02-24T18:23:09.334Z,50.15
2019-02-24T18:25:41.307Z,60.90
2019-02-24T18:28:13.873Z,67.08
2019-02-24T18:30:45.431Z,54.18
2019-02-24T18:33:17.082Z,60.08
2019-02-24T18:35:48.323Z,55.33
2019-02-24T18:38:19.982Z,57.88
2019-02-24T18:43:22.165Z,59.40
2019-02-24T18:48:24.056Z,61.77
2019-02-24T18:50:55.592Z,61.55
2019-02-24T18:53:27.276Z,54.70
2019-02-24T18:56:01.570Z,60.75
2019-02-24T18:58:33.327Z,60.95
2019-02-24T19:03:35.764Z,53.65
2019-02-24T19:06:07.879Z,36.55
2019-02-24T19:11:09.852Z,35.58
2019-02-24T19:13:41.507Z,40.78
2019-02-24T19:16:13.265Z,40.92
2019-02-24T19:18:45.127Z,45.75
2019-02-24T19:23:48.225Z,39.98
2019-02-24T19:26:19.682Z,49.20
2019-02-24T19:31:21.480Z,34.63
2019-02-24T19:33:55.309Z,39.85
2019-02-24T19:36:26.918Z,42.65
2019-02-24T19:41:29.316Z,39.10
2019-02-24T19:44:00.727Z,49.77
2019-02-24T19:46:32.333Z,42.38
2019-02-24T19:51:34.185Z,46.53
2019-02-24T19:54:05.730Z,42.98
2019-02-24T19:56:38.006Z,50.48
2019-02-24T19:59:09.561Z,48.42
2019-02-24T20:01:43.878Z,44.13
2019-02-24T20:04:16.249Z,49.03
2019-02-24T20:06:47.703Z,42.48
2019-02-24T20:09:19.415Z,45.30
2019-02-24T20:11:53.752Z,45.33
2019-02-24T20:14:25.938Z,44.93
2019-02-24T20:19:28.700Z,44.10
2019-02-24T20:24:33.105Z,33.00
2019-02-24T20:27:03.387Z,36.10
2019-02-24T20:32:05.278Z,39.23
2019-02-24T20:34:36.516Z,36.38
2019-02-24T20:39:38.385Z,37.95
2019-02-24T20:42:10.454Z,36.42
2019-02-24T20:44:42.009Z,25.45
2019-02-24T20:47:13.565Z,31.45
2019-02-24T20:49:44.908Z,31.50
2019-02-24T20:52:17.595Z,37.33
2019-02-24T20:54:48.827Z,35.98
2019-02-24T20:59:50.806Z,32.25
2019-02-24T21:02:22.740Z,37.93
2019-02-24T21:04:54.016Z,35.80
2019-02-24T21:07:26.335Z,30.90
2019-02-24T21:09:58.276Z,38.90
2019-02-24T21:12:29.914Z,29.95
2019-02-24T21:17:45.409Z,30.05
2019-02-24T21:20:25.352Z,27.07
2019-02-24T21:22:56.915Z,24.98
2019-02-24T21:25:28.554Z,26.42
2019-02-24T21:28:00.005Z,30.15
2019-02-24T21:33:02.938Z,32.67
2019-02-24T21:35:34.562Z,28.15
2019-02-24T21:40:36.552Z,31.48
2019-02-24T21:43:08.090Z,41.58
2019-02-24T21:45:39.269Z,34.35
2019-02-24T21:48:10.992Z,26.48
2019-02-24T21:53:13.386Z,39.50
2019-02-24T21:55:44.938Z,35.23
2019-02-24T21:58:16.584Z,39.05
2019-02-24T22:03:18.759Z,36.83
2019-02-24T22:05:50.011Z,34.65
2019-02-24T22:10:52.307Z,41.65
2019-02-24T22:13:23.854Z,30.48
2019-02-24T22:15:55.204Z,26.30
2019-02-24T22:18:26.981Z,28.15
2019-02-24T22:20:58.624Z,27.30
2019-02-24T22:26:00.497Z,33.38
2019-02-24T22:28:33.088Z,26.68
2019-02-24T22:31:04.620Z,23.90
2019-02-24T22:33:36.277Z,25.52
2019-02-24T22:38:38.150Z,28.10
2019-02-24T22:41:09.811Z,31.80
2019-02-24T22:46:11.594Z,25.50
2019-02-24T22:48:43.465Z,27.42
2019-02-24T22:51:15.215Z,29.40
2019-02-24T22:53:48.605Z,30.75
2019-02-24T22:56:20.147Z,36.50
2019-02-24T23:01:23.973Z,35.13
2019-02-24T23:04:07.619Z,34.03
2019-02-24T23:06:39.318Z,37.63
2019-02-24T23:09:12.005Z,38.73
2019-02-24T23:11:44.020Z,37.55
2019-02-24T23:14:16.066Z,36.38
2019-02-24T23:16:47.619Z,32.45
2019-02-24T23:21:49.491Z,39.73
2019-02-24T23:24:21.153Z,34.75
2019-02-24T23:26:52.705Z,46.77
2019-02-24T23:29:24.253Z,33.50
2019-02-24T23:31:55.604Z,33.60
2019-02-24T23:34:27.774Z,31.85
2019-02-24T23:36:59.448Z,28.27
2019-02-24T23:39:30.673Z,25.65
2019-02-24T23:42:02.119Z,23.25
2019-02-24T23:47:03.996Z,32.00
2019-02-24T23:49:35.549Z,25.82
2019-02-24T23:54:41.425Z,27.22
2019-02-24T23:57:14.092Z,28.83
2019-02-24T23:59:45.440Z,27.48
